Time;durP1;ratioP1;P1;durP2;ratioP2;P2;SDS_P1;SDS_P2;PMS_P1;PMS_P2;Temp;Humidity;BMP_temperature;BMP_pressure;BME280_temperature;BME280_humidity;BME280_pressure;Samples;Min_cycle;Max_cycle;Signal;HPM_P1;HPM_P2
2021/09/25 00:03:20;;;;;;;7.45;4.15;;;17.70;78.20;;;;;;10127960;28;20115;-59
2021/09/25 00:08:13;;;;;;;6.57;3.60;;;17.80;78.00;;;;;;10128945;28;20020;-58
2021/09/25 00:13:04;;;;;;;5.97;3.53;;;17.60;78.10;;;;;;10127911;28;20032;-58
2021/09/25 00:17:55;;;;;;;7.07;4.30;;;17.50;78.60;;;;;;10121260;28;20025;-58
2021/09/25 00:22:46;;;;;;;6.25;3.90;;;17.80;78.30;;;;;;10130691;28;20048;-57
2021/09/25 00:27:37;;;;;;;5.97;4.35;;;17.80;78.00;;;;;;10122840;28;20037;-58
2021/09/25 00:32:28;;;;;;;7.30;4.63;;;17.80;78.10;;;;;;10122348;28;20413;-57
2021/09/25 00:37:19;;;;;;;6.32;3.78;;;17.60;78.20;;;;;;10132695;28;20116;-60
2021/09/25 00:42:10;;;;;;;9.00;5.53;;;17.60;78.60;;;;;;10142036;28;20571;-60
2021/09/25 00:47:01;;;;;;;9.18;4.65;;;17.60;78.60;;;;;;10130249;28;20040;-59
2021/09/25 00:51:52;;;;;;;10.98;5.40;;;17.60;78.70;;;;;;10146701;28;20026;-59
2021/09/25 00:56:44;;;;;;;6.68;4.68;;;17.50;79.10;;;;;;10145926;28;20044;-59
2021/09/25 01:01:34;;;;;;;8.05;5.03;;;17.50;79.10;;;;;;10128659;28;20615;-57
2021/09/25 01:06:25;;;;;;;10.18;5.75;;;17.40;79.40;;;;;;10134324;28;20040;-61
2021/09/25 01:11:16;;;;;;;8.27;4.95;;;17.40;79.70;;;;;;10150990;28;20281;-58
2021/09/25 01:16:07;;;;;;;7.88;4.80;;;17.50;79.40;;;;;;10128956;28;20406;-58
2021/09/25 01:21:07;;;;;;;7.68;5.93;;;17.30;79.80;;;;;;10114169;28;20471;-58
2021/09/25 01:25:59;;;;;;;7.80;5.38;;;17.50;79.80;;;;;;10139504;28;20580;-58
2021/09/25 01:30:50;;;;;;;10.07;6.22;;;17.50;79.80;;;;;;10123985;28;20368;-58
2021/09/25 01:35:41;;;;;;;8.20;5.20;;;17.30;80.20;;;;;;10116824;28;20043;-58
2021/09/25 01:40:32;;;;;;;10.98;6.75;;;17.20;80.70;;;;;;10144092;28;20035;-58
2021/09/25 01:45:22;;;;;;;9.93;5.35;;;17.20;81.00;;;;;;10129294;28;20046;-60
2021/09/25 01:50:14;;;;;;;8.38;5.50;;;17.20;80.90;;;;;;10121862;28;20063;-59
2021/09/25 01:55:06;;;;;;;8.95;5.22;;;17.10;81.30;;;;;;10128026;28;20442;-59
2021/09/25 01:59:56;;;;;;;10.68;5.70;;;17.00;81.30;;;;;;10132600;28;20076;-59
2021/09/25 02:04:47;;;;;;;7.90;5.70;;;16.70;81.80;;;;;;10124265;28;20147;-58
2021/09/25 02:09:38;;;;;;;7.88;4.43;;;16.80;81.80;;;;;;10136001;28;20024;-59
2021/09/25 02:14:28;;;;;;;8.07;5.05;;;16.80;82.20;;;;;;10129463;28;20415;-60
2021/09/25 02:19:19;;;;;;;9.02;5.20;;;16.70;82.10;;;;;;10132017;28;20433;-60
2021/09/25 02:24:10;;;;;;;10.05;5.00;;;16.60;82.70;;;;;;10133788;28;20054;-59
2021/09/25 02:29:01;;;;;;;8.02;5.50;;;16.60;82.60;;;;;;10128209;28;20024;-61
2021/09/25 02:33:52;;;;;;;9.40;5.10;;;16.70;82.60;;;;;;10135809;28;20044;-58
2021/09/25 02:38:42;;;;;;;8.23;5.30;;;16.60;82.80;;;;;;10130518;28;20067;-57
2021/09/25 02:43:33;;;;;;;7.28;5.20;;;16.50;82.90;;;;;;10128542;28;20028;-59
2021/09/25 02:48:24;;;;;;;8.00;4.70;;;16.40;83.00;;;;;;10135610;28;20036;-59
2021/09/25 02:53:14;;;;;;;7.72;4.50;;;16.30;82.80;;;;;;10137918;28;20448;-59
2021/09/25 02:58:05;;;;;;;8.02;4.35;;;16.20;83.20;;;;;;10117647;28;20364;-58
2021/09/25 03:02:56;;;;;;;9.30;4.65;;;16.20;83.20;;;;;;10129507;28;20133;-60
2021/09/25 03:07:47;;;;;;;7.15;4.68;;;16.10;83.50;;;;;;10122948;28;20032;-59
2021/09/25 03:12:38;;;;;;;8.60;4.65;;;16.10;83.70;;;;;;10129829;28;20563;-59
2021/09/25 03:17:30;;;;;;;7.68;4.75;;;16.10;83.60;;;;;;10107751;28;20044;-57
2021/09/25 03:22:20;;;;;;;6.55;4.18;;;16.00;83.50;;;;;;10128556;28;20024;-58
2021/09/25 03:27:11;;;;;;;7.15;4.28;;;15.90;83.80;;;;;;10136335;28;20032;-59
2021/09/25 03:32:03;;;;;;;6.60;4.30;;;15.90;83.80;;;;;;10121025;28;20027;-59
2021/09/25 03:36:53;;;;;;;7.30;4.32;;;15.80;83.90;;;;;;10135442;28;20542;-59
2021/09/25 03:41:44;;;;;;;7.07;3.95;;;15.80;83.90;;;;;;10126672;28;20044;-59
2021/09/25 03:46:35;;;;;;;9.18;4.97;;;15.80;83.60;;;;;;10122825;28;20121;-58
2021/09/25 03:51:26;;;;;;;7.70;3.92;;;15.70;83.90;;;;;;10113568;28;20024;-59
2021/09/25 03:56:17;;;;;;;4.72;3.47;;;15.70;84.70;;;;;;10139731;28;20059;-60
2021/09/25 04:01:07;;;;;;;6.50;4.55;;;15.60;84.10;;;;;;10127623;28;20016;-59
2021/09/25 04:05:58;;;;;;;8.50;3.85;;;15.50;83.90;;;;;;10131754;28;20037;-61
2021/09/25 04:10:49;;;;;;;6.05;3.47;;;15.40;84.60;;;;;;10140137;28;20113;-59
2021/09/25 04:15:40;;;;;;;6.38;3.80;;;15.40;84.50;;;;;;10135114;28;20117;-59
2021/09/25 04:20:31;;;;;;;7.15;4.00;;;15.30;84.40;;;;;;10121244;28;20159;-61
2021/09/25 04:25:26;;;;;;;6.38;3.55;;;15.20;84.70;;;;;;10124993;28;20050;-59
2021/09/25 04:30:16;;;;;;;5.80;3.17;;;15.30;84.60;;;;;;10116258;28;20259;-61
2021/09/25 04:35:08;;;;;;;7.28;4.32;;;15.50;84.20;;;;;;10132815;28;20113;-55
2021/09/25 04:39:58;;;;;;;7.07;4.47;;;15.50;84.40;;;;;;10121052;28;20319;-58
2021/09/25 04:44:49;;;;;;;6.90;4.50;;;15.40;84.40;;;;;;10124624;28;20326;-59
2021/09/25 04:49:40;;;;;;;8.25;4.63;;;15.40;84.70;;;;;;10129723;28;20086;-59
2021/09/25 04:54:30;;;;;;;6.28;4.45;;;15.40;84.70;;;;;;10120706;28;20025;-60
2021/09/25 04:59:21;;;;;;;6.47;4.05;;;15.50;84.50;;;;;;10131696;28;20200;-59
2021/09/25 05:04:12;;;;;;;6.82;4.55;;;15.50;84.60;;;;;;10135231;28;20040;-60
2021/09/25 05:09:03;;;;;;;6.70;4.63;;;15.20;85.30;;;;;;10128553;28;20072;-60
2021/09/25 05:13:55;;;;;;;6.05;4.63;;;15.10;85.60;;;;;;10131237;28;20430;-60
2021/09/25 05:18:46;;;;;;;10.07;4.97;;;15.20;85.60;;;;;;10128592;28;20247;-57
2021/09/25 05:23:36;;;;;;;8.23;4.47;;;15.00;85.90;;;;;;10128279;28;20044;-59
2021/09/25 05:28:28;;;;;;;9.13;4.50;;;15.00;85.90;;;;;;10138020;28;20024;-59
2021/09/25 05:33:18;;;;;;;9.80;4.07;;;15.00;85.80;;;;;;10114982;28;20032;-58
2021/09/25 05:38:09;;;;;;;7.43;4.55;;;15.10;86.00;;;;;;10143819;28;20396;-54
2021/09/25 05:42:59;;;;;;;7.60;4.20;;;15.10;85.70;;;;;;10129314;28;20605;-60
2021/09/25 05:47:51;;;;;;;8.15;4.95;;;15.20;85.80;;;;;;10128508;28;20029;-57
2021/09/25 05:52:42;;;;;;;6.80;4.13;;;15.20;85.80;;;;;;10139159;28;20028;-57
2021/09/25 05:57:32;;;;;;;6.22;4.15;;;15.30;85.70;;;;;;10143604;28;20644;-59
2021/09/25 06:02:23;;;;;;;7.93;4.60;;;15.20;85.90;;;;;;10127214;28;20086;-58
2021/09/25 06:07:15;;;;;;;5.90;4.05;;;15.20;86.00;;;;;;10139564;28;20040;-57
2021/09/25 06:12:06;;;;;;;6.97;4.68;;;15.20;86.00;;;;;;10098007;28;20096;-58
2021/09/25 06:16:57;;;;;;;6.90;4.18;;;15.00;86.50;;;;;;10097503;28;20119;-58
2021/09/25 06:21:47;;;;;;;10.63;5.18;;;15.10;86.10;;;;;;10134544;28;20455;-60
2021/09/25 06:26:39;;;;;;;8.10;4.40;;;14.90;86.30;;;;;;10135149;28;20096;-58
2021/09/25 06:31:29;;;;;;;8.90;5.70;;;14.90;86.70;;;;;;10135951;28;20370;-59
2021/09/25 06:36:20;;;;;;;6.65;4.35;;;15.00;86.40;;;;;;10130617;28;20109;-63
2021/09/25 06:41:11;;;;;;;7.72;6.05;;;15.10;86.30;;;;;;10125170;28;20108;-58
2021/09/25 06:46:02;;;;;;;9.18;4.80;;;15.20;86.30;;;;;;10140786;28;20677;-59
2021/09/25 06:50:52;;;;;;;7.05;4.22;;;15.40;85.90;;;;;;10126877;28;20186;-60
2021/09/25 06:55:43;;;;;;;7.05;4.05;;;15.40;86.00;;;;;;10130173;28;20093;-57
2021/09/25 07:00:34;;;;;;;7.47;3.90;;;15.50;85.70;;;;;;10127316;28;20039;-61
2021/09/25 07:05:25;;;;;;;7.40;4.50;;;15.60;86.00;;;;;;10128337;28;20020;-60
2021/09/25 07:10:17;;;;;;;7.15;4.07;;;15.60;85.90;;;;;;10127362;28;20198;-60
2021/09/25 07:15:08;;;;;;;8.20;4.65;;;15.70;85.70;;;;;;10125291;28;20109;-60
2021/09/25 07:19:59;;;;;;;12.43;4.65;;;15.80;85.70;;;;;;10124549;28;20482;-58
2021/09/25 07:24:54;;;;;;;8.73;4.57;;;15.90;85.60;;;;;;10134296;28;20139;-61
2021/09/25 07:29:45;;;;;;;8.77;4.22;;;16.00;85.50;;;;;;10126109;28;20414;-58
2021/09/25 07:34:35;;;;;;;6.43;4.18;;;16.00;85.30;;;;;;10132764;28;20040;-59
2021/09/25 07:39:26;;;;;;;8.20;4.45;;;16.20;85.20;;;;;;10129225;28;20580;-59
2021/09/25 07:44:17;;;;;;;8.13;4.43;;;16.30;85.10;;;;;;10121587;28;20111;-61
2021/09/25 07:49:07;;;;;;;6.80;4.28;;;16.40;84.90;;;;;;10130213;28;20393;-59
2021/09/25 07:53:58;;;;;;;6.22;4.15;;;16.50;84.70;;;;;;10136463;28;20043;-59
2021/09/25 07:58:49;;;;;;;6.32;3.60;;;16.60;84.50;;;;;;10128425;28;20090;-58
2021/09/25 08:03:39;;;;;;;7.03;5.00;;;16.70;84.50;;;;;;10125696;28;20047;-61
2021/09/25 08:08:30;;;;;;;7.35;4.53;;;16.80;84.30;;;;;;10130098;28;20052;-60
2021/09/25 08:13:21;;;;;;;6.07;4.05;;;16.90;84.20;;;;;;10124511;28;20024;-60
2021/09/25 08:18:11;;;;;;;6.47;4.07;;;17.00;83.90;;;;;;10122672;28;20029;-59
2021/09/25 08:23:02;;;;;;;5.03;3.67;;;17.10;83.90;;;;;;10108844;28;20073;-60
2021/09/25 08:27:53;;;;;;;6.80;4.03;;;17.20;83.60;;;;;;10111168;28;20017;-60
2021/09/25 08:32:44;;;;;;;6.53;3.78;;;17.40;83.20;;;;;;10114566;28;20020;-63
2021/09/25 08:37:36;;;;;;;5.65;3.42;;;17.50;83.00;;;;;;10118961;28;20447;-61
2021/09/25 08:42:27;;;;;;;5.10;3.22;;;17.50;83.20;;;;;;10144140;28;20039;-60
2021/09/25 08:47:19;;;;;;;7.40;4.00;;;17.50;83.10;;;;;;10120583;28;20486;-60
2021/09/25 08:52:09;;;;;;;6.22;3.47;;;17.70;82.80;;;;;;10125619;28;20331;-61
2021/09/25 08:57:06;;;;;;;4.90;3.60;;;17.90;82.30;;;;;;10113515;28;20144;-60
2021/09/25 09:02:13;;;;;;;5.50;3.80;;;18.10;82.10;;;;;;10111316;28;20158;-60
2021/09/25 09:07:16;;;;;;;5.00;4.07;;;18.20;81.80;;;;;;10124411;28;20063;-61
2021/09/25 09:12:07;;;;;;;6.70;3.88;;;18.40;81.40;;;;;;10132087;28;20040;-60
2021/09/25 09:16:57;;;;;;;5.38;3.20;;;18.40;81.50;;;;;;10133956;28;20024;-62
2021/09/25 09:21:50;;;;;;;6.45;3.75;;;18.50;81.20;;;;;;10130481;28;20025;-61
2021/09/25 09:26:42;;;;;;;6.05;3.63;;;18.70;81.10;;;;;;10123385;28;20367;-59
2021/09/25 09:31:34;;;;;;;5.45;3.70;;;18.90;80.60;;;;;;10131891;28;20024;-60
2021/09/25 09:36:41;;;;;;;5.68;4.10;;;19.00;80.40;;;;;;10133362;28;20021;-59
2021/09/25 09:41:36;;;;;;;7.05;3.70;;;19.10;80.20;;;;;;10129368;28;20363;-60
2021/09/25 09:46:33;;;;;;;7.22;4.00;;;19.30;80.00;;;;;;10129550;28;20040;-60
2021/09/25 09:51:42;;;;;;;6.38;3.72;;;19.40;79.40;;;;;;10132710;28;20033;-60
2021/09/25 09:56:38;;;;;;;6.00;3.63;;;19.60;79.30;;;;;;10129259;28;20217;-60
2021/09/25 10:01:29;;;;;;;4.72;3.65;;;19.70;79.00;;;;;;10119781;28;20425;-59
2021/09/25 10:06:20;;;;;;;5.43;3.70;;;19.80;79.00;;;;;;10129094;28;20036;-60
2021/09/25 10:11:11;;;;;;;6.85;4.53;;;20.00;78.40;;;;;;10126387;28;20021;-59
2021/09/25 10:16:02;;;;;;;8.05;4.70;;;20.10;78.00;;;;;;10131295;28;20489;-59
2021/09/25 10:20:53;;;;;;;4.97;3.75;;;20.30;77.80;;;;;;10130942;28;20021;-61
2021/09/25 10:25:44;;;;;;;4.10;3.70;;;20.30;77.50;;;;;;10123988;28;20037;-60
2021/09/25 10:30:36;;;;;;;4.88;3.22;;;20.40;77.40;;;;;;10129227;28;20355;-61
2021/09/25 10:35:28;;;;;;;6.07;3.33;;;20.50;77.10;;;;;;10128405;28;20059;-61
2021/09/25 10:40:25;;;;;;;5.22;2.88;;;20.70;76.70;;;;;;10128813;28;20020;-61
2021/09/25 10:45:26;;;;;;;7.53;3.45;;;20.90;76.20;;;;;;10126758;28;20037;-60
2021/09/25 10:50:16;;;;;;;3.85;3.17;;;21.00;75.60;;;;;;10116626;28;20029;-61
2021/09/25 10:55:24;;;;;;;6.78;3.60;;;21.00;75.50;;;;;;10126049;28;20559;-59
2021/09/25 11:00:21;;;;;;;5.68;3.15;;;21.20;75.00;;;;;;10123104;28;20441;-62
2021/09/25 11:05:17;;;;;;;4.82;3.55;;;21.30;74.70;;;;;;10126878;28;20350;-61
2021/09/25 11:10:08;;;;;;;4.10;3.08;;;21.40;74.40;;;;;;10123027;28;20133;-60
2021/09/25 11:14:58;;;;;;;5.60;3.55;;;21.40;74.10;;;;;;10121362;28;20486;-61
2021/09/25 11:20:00;;;;;;;4.18;3.15;;;21.60;73.90;;;;;;10129382;28;20509;-59
2021/09/25 11:25:04;;;;;;;3.65;2.83;;;21.70;73.70;;;;;;10126375;28;20044;-59
2021/09/25 11:30:16;;;;;;;5.78;3.72;;;21.70;73.20;;;;;;10121322;28;20020;-62
2021/09/25 11:35:11;;;;;;;4.45;3.40;;;21.90;73.10;;;;;;10132621;28;20030;-59
2021/09/25 11:40:02;;;;;;;;;;;22.00;72.70;;;;;;10126547;28;20047;-61
2021/09/25 11:45:04;;;;;;;6.45;3.75;;;22.10;72.60;;;;;;10118392;28;19959;-59
2021/09/25 11:49:57;;;;;;;6.70;3.58;;;22.30;72.50;;;;;;10123383;28;20024;-62
2021/09/25 11:54:49;;;;;;;5.15;3.20;;;22.60;72.00;;;;;;10125034;28;20409;-62
2021/09/25 11:59:40;;;;;;;6.78;3.47;;;22.70;71.80;;;;;;10125873;28;20039;-59
2021/09/25 12:04:40;;;;;;;4.15;3.15;;;22.80;71.40;;;;;;10124276;28;20375;-60
2021/09/25 12:09:47;;;;;;;4.95;2.95;;;23.10;71.00;;;;;;10116932;28;20107;-59
2021/09/25 12:14:45;;;;;;;4.85;3.00;;;23.40;70.50;;;;;;10124204;28;20090;-60
2021/09/25 12:19:36;;;;;;;5.38;3.78;;;23.50;70.20;;;;;;10123206;28;20067;-60
2021/09/25 12:24:29;;;;;;;4.13;3.72;;;23.80;70.50;;;;;;10124813;28;20453;-60
2021/09/25 12:29:21;;;;;;;5.28;3.78;;;24.00;69.50;;;;;;10106575;28;20165;-59
2021/09/25 12:34:17;;;;;;;5.07;3.72;;;24.10;69.40;;;;;;10126038;28;20035;-61
2021/09/25 12:39:11;;;;;;;4.43;3.42;;;24.20;69.30;;;;;;10132943;28;20024;-61
2021/09/25 12:44:12;;;;;;;4.45;3.33;;;24.30;69.30;;;;;;10134406;28;20233;-60
2021/09/25 12:49:05;;;;;;;5.38;4.15;;;24.70;68.60;;;;;;10109587;28;20414;-59
2021/09/25 12:53:57;;;;;;;6.28;3.80;;;25.00;68.30;;;;;;10137139;28;20032;-60
2021/09/25 12:58:52;;;;;;;5.43;3.90;;;25.20;68.10;;;;;;10130609;28;20048;-62
2021/09/25 13:03:42;;;;;;;5.00;3.92;;;25.30;67.60;;;;;;10128045;28;20079;-61
2021/09/25 13:08:33;;;;;;;4.38;3.22;;;25.40;67.70;;;;;;10127015;28;20028;-61
2021/09/25 13:13:24;;;;;;;3.70;2.72;;;26.20;67.60;;;;;;10132654;28;20036;-61
2021/09/25 13:18:14;;;;;;;4.07;2.88;;;27.00;67.10;;;;;;10139738;28;20029;-62
2021/09/25 13:23:17;;;;;;;3.90;3.50;;;27.10;66.20;;;;;;10111089;28;20028;-61
2021/09/25 13:28:10;;;;;;;5.70;3.85;;;27.10;65.10;;;;;;10131543;28;20124;-58
2021/09/25 13:33:01;;;;;;;4.35;2.95;;;28.70;63.90;;;;;;10114739;28;20344;-58
2021/09/25 13:37:51;;;;;;;4.65;3.55;;;29.60;61.80;;;;;;10126831;28;20021;-59
2021/09/25 13:42:42;;;;;;;4.18;3.35;;;28.20;61.80;;;;;;10143039;28;20032;-61
2021/09/25 13:47:34;;;;;;;5.30;3.30;;;28.50;61.80;;;;;;10128962;28;20032;-61
2021/09/25 13:52:25;;;;;;;4.88;3.03;;;28.30;60.50;;;;;;10133719;28;20021;-60
2021/09/25 13:57:16;;;;;;;4.93;2.80;;;29.80;58.70;;;;;;10136662;28;20486;-60
2021/09/25 14:02:09;;;;;;;6.22;2.55;;;29.90;58.20;;;;;;10129157;28;20418;-60
2021/09/25 14:07:00;;;;;;;4.90;3.15;;;30.70;57.30;;;;;;10128961;28;20037;-59
2021/09/25 14:11:51;;;;;;;3.70;3.13;;;31.20;56.00;;;;;;10125436;28;20013;-60
2021/09/25 14:16:42;;;;;;;8.93;3.45;;;30.40;56.10;;;;;;10128893;28;20028;-61
2021/09/25 14:21:36;;;;;;;6.28;3.55;;;29.10;56.80;;;;;;10130457;28;20020;-61
2021/09/25 14:26:28;;;;;;;3.47;3.13;;;28.20;57.00;;;;;;10126176;28;20569;-60
2021/09/25 14:31:18;;;;;;;4.55;3.08;;;27.50;57.60;;;;;;10127824;28;20020;-60
2021/09/25 14:36:09;;;;;;;3.30;2.65;;;27.00;57.70;;;;;;10131640;28;20035;-59
2021/09/25 14:41:00;;;;;;;4.93;3.35;;;26.70;57.60;;;;;;10136212;28;20067;-60
2021/09/25 14:45:51;;;;;;;3.65;2.88;;;26.60;57.30;;;;;;10105505;28;20064;-60
2021/09/25 14:50:41;;;;;;;5.18;3.50;;;28.20;56.00;;;;;;10111133;28;20036;-59
2021/09/25 14:55:32;;;;;;;4.75;3.25;;;29.50;53.20;;;;;;10131065;28;20131;-61
2021/09/25 15:00:23;;;;;;;5.05;3.17;;;29.80;54.10;;;;;;10122619;28;20089;-60
2021/09/25 15:05:15;;;;;;;3.47;2.83;;;30.40;51.50;;;;;;10127023;28;20036;-60
2021/09/25 15:10:06;;;;;;;8.93;3.90;;;30.80;50.70;;;;;;10128051;28;20452;-60
2021/09/25 15:14:59;;;;;;;5.70;3.88;;;30.20;51.90;;;;;;10125848;28;20120;-61
2021/09/25 15:19:49;;;;;;;7.30;4.80;;;30.10;52.20;;;;;;10108295;28;20036;-60
2021/09/25 15:24:41;;;;;;;5.93;3.65;;;33.20;47.90;;;;;;10127944;28;20105;-61
2021/09/25 15:29:32;;;;;;;5.80;3.90;;;34.40;46.00;;;;;;10127969;28;20403;-61
2021/09/25 15:34:23;;;;;;;3.28;2.97;;;35.10;45.20;;;;;;10125396;28;20035;-60
2021/09/25 15:39:13;;;;;;;4.60;3.95;;;35.30;45.00;;;;;;10124673;28;20028;-63
2021/09/25 15:44:04;;;;;;;4.90;3.70;;;35.20;45.20;;;;;;10126676;28;20037;-60
2021/09/25 15:48:55;;;;;;;6.25;3.35;;;34.90;45.40;;;;;;10125078;28;20025;-59
2021/09/25 15:53:46;;;;;;;6.47;3.60;;;30.90;50.00;;;;;;10125754;28;20040;-59
2021/09/25 15:58:37;;;;;;;6.10;3.60;;;28.40;54.20;;;;;;10106731;28;20118;-61
2021/09/25 16:03:27;;;;;;;4.63;3.47;;;27.20;56.30;;;;;;10125629;28;20405;-63
2021/09/25 16:08:18;;;;;;;4.50;2.83;;;26.60;57.50;;;;;;10122147;28;20044;-61
2021/09/25 16:13:08;;;;;;;5.97;4.00;;;26.50;57.30;;;;;;10125998;28;20063;-60
2021/09/25 16:17:59;;;;;;;4.70;3.22;;;26.00;59.00;;;;;;10127221;28;20028;-58
2021/09/25 16:22:50;;;;;;;4.65;3.13;;;25.60;59.40;;;;;;10106039;28;20028;-59
2021/09/25 16:27:40;;;;;;;4.85;3.53;;;25.20;60.60;;;;;;10123089;28;20098;-60
2021/09/25 16:32:31;;;;;;;5.82;3.33;;;24.90;61.30;;;;;;10124474;28;20020;-60
2021/09/25 16:37:22;;;;;;;6.53;4.30;;;24.70;62.40;;;;;;10124617;28;20514;-62
2021/09/25 16:42:13;;;;;;;5.28;3.88;;;24.50;62.90;;;;;;10129148;28;20032;-63
2021/09/25 16:47:03;;;;;;;5.35;2.88;;;24.30;63.50;;;;;;10123432;28;20173;-61
2021/09/25 16:51:54;;;;;;;5.47;3.83;;;24.00;64.90;;;;;;10123881;28;20130;-61
2021/09/25 16:56:45;;;;;;;6.50;3.95;;;23.80;65.40;;;;;;10121027;28;20044;-60
2021/09/25 17:01:36;;;;;;;6.47;4.28;;;23.80;66.20;;;;;;10124210;28;20028;-61
2021/09/25 17:06:27;;;;;;;6.95;4.97;;;23.80;65.90;;;;;;10125266;28;20059;-59
2021/09/25 17:11:19;;;;;;;8.15;4.30;;;23.80;66.30;;;;;;10124305;28;20107;-61
2021/09/25 17:16:09;;;;;;;4.63;3.50;;;23.70;66.60;;;;;;10123004;28;20025;-61
2021/09/25 17:21:00;;;;;;;8.45;4.40;;;23.50;67.00;;;;;;10131076;28;20024;-60
2021/09/25 17:25:51;;;;;;;5.93;4.38;;;23.40;67.40;;;;;;10137247;28;20567;-60
2021/09/25 17:30:43;;;;;;;5.97;4.70;;;23.30;67.80;;;;;;10130012;28;20028;-61
2021/09/25 17:35:34;;;;;;;7.10;4.70;;;23.20;68.10;;;;;;10106033;28;20037;-60
2021/09/25 17:40:26;;;;;;;7.78;4.88;;;23.10;68.80;;;;;;10132976;28;20071;-60
2021/09/25 17:45:17;;;;;;;8.88;4.65;;;23.00;69.00;;;;;;10134697;28;20405;-61
2021/09/25 17:50:10;;;;;;;6.82;5.15;;;23.00;69.40;;;;;;10129807;28;20020;-60
2021/09/25 17:55:00;;;;;;;7.78;4.80;;;23.10;69.60;;;;;;10131212;28;20093;-62
2021/09/25 17:59:51;;;;;;;9.50;5.38;;;23.10;69.60;;;;;;10113850;28;20094;-62
2021/09/25 18:04:42;;;;;;;9.40;5.95;;;23.10;69.80;;;;;;10123908;28;20384;-60
2021/09/25 18:09:33;;;;;;;9.15;5.15;;;23.10;69.90;;;;;;10112471;28;20115;-63
2021/09/25 18:14:24;;;;;;;10.18;5.50;;;23.00;70.00;;;;;;10130725;28;20774;-60
2021/09/25 18:19:15;;;;;;;9.32;6.03;;;22.90;70.30;;;;;;10127449;28;20030;-61
2021/09/25 18:24:06;;;;;;;7.03;5.00;;;22.80;70.40;;;;;;10126383;28;20415;-63
2021/09/25 18:28:57;;;;;;;10.85;7.10;;;22.80;70.60;;;;;;10114313;28;20491;-61
2021/09/25 18:33:47;;;;;;;8.95;5.38;;;22.90;70.30;;;;;;10129713;28;21214;-61
2021/09/25 18:38:38;;;;;;;10.80;7.35;;;22.90;70.20;;;;;;10107839;28;20121;-63
2021/09/25 18:43:29;;;;;;;10.65;7.97;;;22.90;70.20;;;;;;10130419;28;20055;-61
2021/09/25 18:48:20;;;;;;;15.10;6.88;;;22.90;70.30;;;;;;10134970;28;20149;-63
2021/09/25 18:53:11;;;;;;;9.90;6.68;;;22.90;70.30;;;;;;10126376;28;20044;-63
2021/09/25 18:58:02;;;;;;;16.63;9.30;;;22.80;70.40;;;;;;10124834;28;20041;-63
2021/09/25 19:02:52;;;;;;;16.45;10.32;;;22.80;70.50;;;;;;10128544;28;20302;-63
2021/09/25 19:07:43;;;;;;;14.05;8.90;;;22.80;70.60;;;;;;10130556;28;20607;-62
2021/09/25 19:12:34;;;;;;;18.67;10.07;;;22.70;70.70;;;;;;10124615;28;20024;-63
2021/09/25 19:17:25;;;;;;;21.95;11.10;;;22.70;70.70;;;;;;10111024;28;20076;-66
2021/09/25 19:22:16;;;;;;;15.57;9.35;;;22.70;70.80;;;;;;10127597;28;20093;-62
2021/09/25 19:27:09;;;;;;;16.75;9.23;;;22.70;70.80;;;;;;10127526;28;20087;-63
2021/09/25 19:31:59;;;;;;;16.98;9.73;;;22.70;70.90;;;;;;10126934;28;20486;-62
2021/09/25 19:36:50;;;;;;;12.70;8.63;;;22.70;70.90;;;;;;10127971;28;20036;-62
2021/09/25 19:41:41;;;;;;;14.00;8.93;;;22.70;71.10;;;;;;10125532;28;20524;-61
2021/09/25 19:46:33;;;;;;;20.35;10.95;;;22.80;71.10;;;;;;10135826;28;20941;-60
2021/09/25 19:51:24;;;;;;;15.38;8.68;;;22.70;71.20;;;;;;10130187;28;20119;-62
2021/09/25 19:56:14;;;;;;;14.60;7.35;;;22.60;71.80;;;;;;10125969;28;20691;-62
2021/09/25 20:01:05;;;;;;;17.23;8.05;;;22.50;72.40;;;;;;10122934;28;20232;-63
2021/09/25 20:05:56;;;;;;;19.58;12.10;;;22.50;72.60;;;;;;10125210;28;20028;-62
2021/09/25 20:10:46;;;;;;;21.20;11.40;;;22.40;73.00;;;;;;10127226;28;20028;-63
2021/09/25 20:15:37;;;;;;;14.43;8.48;;;22.40;73.50;;;;;;10125135;28;20028;-62
2021/09/25 20:20:28;;;;;;;13.85;8.13;;;22.30;73.90;;;;;;10123644;28;20478;-64
2021/09/25 20:25:19;;;;;;;17.77;9.82;;;22.30;74.30;;;;;;10126358;28;20044;-62
2021/09/25 20:30:11;;;;;;;14.38;8.82;;;22.10;74.90;;;;;;10126147;28;20114;-63
2021/09/25 20:35:02;;;;;;;13.75;9.27;;;22.10;75.50;;;;;;10122071;28;20029;-67
2021/09/25 20:39:53;;;;;;;13.38;9.25;;;22.00;75.70;;;;;;10126785;28;20028;-61
2021/09/25 20:44:44;;;;;;;17.63;9.57;;;22.00;76.30;;;;;;10135248;28;20036;-64
2021/09/25 20:49:34;;;;;;;15.25;8.70;;;22.10;76.30;;;;;;10126628;28;20025;-62
2021/09/25 20:54:25;;;;;;;16.70;9.80;;;22.10;76.60;;;;;;10124902;28;20115;-61
2021/09/25 20:59:16;;;;;;;16.27;10.02;;;22.00;76.80;;;;;;10133854;28;20526;-61
2021/09/25 21:04:06;;;;;;;18.83;9.75;;;22.00;77.20;;;;;;10132561;28;20229;-60
2021/09/25 21:08:57;;;;;;;16.63;9.95;;;22.00;77.80;;;;;;10129307;28;20029;-60
2021/09/25 21:13:48;;;;;;;18.40;11.90;;;21.90;77.90;;;;;;10132923;28;20033;-61
2021/09/25 21:18:39;;;;;;;14.15;8.95;;;21.90;78.30;;;;;;10143261;28;20263;-60
2021/09/25 21:23:30;;;;;;;15.80;9.90;;;21.90;78.80;;;;;;10131383;28;20521;-59
2021/09/25 21:28:23;;;;;;;17.30;9.80;;;21.80;79.20;;;;;;10128959;28;20121;-61
2021/09/25 21:33:17;;;;;;;14.77;8.57;;;21.80;79.40;;;;;;10137167;28;20535;-62
2021/09/25 21:38:07;;;;;;;13.57;9.10;;;21.80;79.80;;;;;;10132432;28;20045;-59
2021/09/25 21:42:58;;;;;;;15.07;9.70;;;21.80;80.10;;;;;;10129140;28;20039;-60
2021/09/25 21:47:48;;;;;;;19.10;9.98;;;21.80;80.40;;;;;;10140122;28;20033;-60
2021/09/25 21:52:40;;;;;;;15.70;9.80;;;21.80;80.60;;;;;;10131914;28;20028;-59
2021/09/25 21:57:31;;;;;;;12.85;9.05;;;21.80;80.80;;;;;;10127716;28;20045;-60
2021/09/25 22:02:22;;;;;;;18.23;8.40;;;21.70;81.00;;;;;;10128060;28;20398;-60
2021/09/25 22:07:13;;;;;;;13.77;8.30;;;21.70;81.30;;;;;;10131567;28;20380;-62
2021/09/25 22:12:04;;;;;;;11.57;8.50;;;21.70;81.40;;;;;;10113605;28;20396;-59
2021/09/25 22:16:55;;;;;;;13.45;7.72;;;21.70;81.60;;;;;;10126970;28;20074;-60
2021/09/25 22:21:46;;;;;;;10.18;7.50;;;21.60;81.90;;;;;;10132430;28;20078;-60
2021/09/25 22:26:36;;;;;;;9.20;7.10;;;21.50;82.30;;;;;;10121667;28;20044;-61
2021/09/25 22:31:27;;;;;;;12.38;7.47;;;21.50;82.40;;;;;;10128417;28;20501;-62
2021/09/25 22:36:19;;;;;;;9.65;6.45;;;21.40;82.60;;;;;;10121541;28;20534;-61
2021/09/25 22:41:13;;;;;;;10.60;7.13;;;21.30;82.90;;;;;;10119448;28;20024;-61
2021/09/25 22:46:07;;;;;;;14.33;7.30;;;21.20;83.20;;;;;;10127417;28;20491;-61
2021/09/25 22:50:58;;;;;;;15.63;9.07;;;21.20;83.30;;;;;;10118021;28;20027;-60
2021/09/25 22:55:50;;;;;;;7.68;5.85;;;21.20;83.50;;;;;;10129678;28;20140;-60
2021/09/25 23:00:41;;;;;;;10.07;6.70;;;21.20;83.80;;;;;;10128140;28;20032;-59
2021/09/25 23:05:32;;;;;;;8.35;6.28;;;21.20;83.90;;;;;;10123843;28;20411;-60
2021/09/25 23:10:22;;;;;;;8.85;5.72;;;21.20;84.10;;;;;;10125995;28;20370;-62
2021/09/25 23:15:14;;;;;;;10.25;6.10;;;21.10;84.40;;;;;;10126074;28;20044;-61
2021/09/25 23:20:10;;;;;;;8.95;5.70;;;21.10;84.50;;;;;;10130981;28;20040;-61
2021/09/25 23:25:00;;;;;;;;;;;21.00;84.70;;;;;;10123868;28;20422;-61
2021/09/25 23:29:51;;;;;;;9.55;6.00;;;21.00;85.00;;;;;;10122141;28;19918;-63
2021/09/25 23:34:42;;;;;;;11.45;5.63;;;21.00;84.80;;;;;;10124366;28;20028;-61
2021/09/25 23:39:33;;;;;;;7.20;5.50;;;20.90;84.90;;;;;;10121552;28;20381;-60
2021/09/25 23:44:24;;;;;;;8.93;5.78;;;20.80;85.10;;;;;;10124858;28;20056;-60
2021/09/25 23:49:15;;;;;;;9.13;5.47;;;20.80;85.40;;;;;;10124777;28;20028;-60
2021/09/25 23:54:06;;;;;;;6.53;4.40;;;20.80;85.50;;;;;;10124245;28;20044;-60
2021/09/25 23:58:56;;;;;;;7.32;5.28;;;20.70;85.80;;;;;;10121187;28;20176;-59
